sensor_id;sensor_type;location;lat;lon;timestamp;pressure;altitude;pressure_sealevel;temperature;humidity
18533;BME280;9396;51.510;11.934;2023-04-01T00:02:11;98680.44;;;10.62;100.00
18533;BME280;9396;51.510;11.934;2023-04-01T00:04:38;98679.81;;;10.60;100.00
18533;BME280;9396;51.510;11.934;2023-04-01T00:07:05;98678.22;;;10.65;100.00
18533;BME280;9396;51.510;11.934;2023-04-01T00:09:33;98680.47;;;10.68;100.00
18533;BME280;9396;51.510;11.934;2023-04-01T00:12:00;98675.78;;;10.70;100.00
18533;BME280;9396;51.510;11.934;2023-04-01T00:14:27;98681.72;;;10.72;100.00
18533;BME280;9396;51.510;11.934;2023-04-01T00:16:54;98683.97;;;10.75;100.00
18533;BME280;9396;51.510;11.934;2023-04-01T00:19:21;98680.09;;;10.71;100.00
18533;BME280;9396;51.510;11.934;2023-04-01T00:21:47;98687.03;;;10.72;100.00
18533;BME280;9396;51.510;11.934;2023-04-01T00:24:14;98677.22;;;10.73;100.00
18533;BME280;9396;51.510;11.934;2023-04-01T00:26:42;98686.22;;;10.72;100.00
18533;BME280;9396;51.510;11.934;2023-04-01T00:29:09;98687.03;;;10.72;100.00
18533;BME280;9396;51.510;11.934;2023-04-01T00:31:36;98683.13;;;10.68;100.00
18533;BME280;9396;51.510;11.934;2023-04-01T00:34:03;98674.78;;;10.71;100.00
18533;BME280;9396;51.510;11.934;2023-04-01T00:36:29;98673.53;;;10.74;100.00
18533;BME280;9396;51.510;11.934;2023-04-01T00:38:57;98677.47;;;10.78;100.00
18533;BME280;9396;51.510;11.934;2023-04-01T00:41:24;98678.22;;;10.72;100.00
18533;BME280;9396;51.510;11.934;2023-04-01T00:43:52;98677.66;;;10.76;100.00
18533;BME280;9396;51.510;11.934;2023-04-01T00:46:20;98629.03;;;10.48;100.00
18533;BME280;9396;51.510;11.934;2023-04-01T00:48:48;98675.56;;;10.72;100.00
18533;BME280;9396;51.510;11.934;2023-04-01T00:51:20;98666.59;;;10.73;100.00
18533;BME280;9396;51.510;11.934;2023-04-01T00:53:50;98673.13;;;10.70;100.00
18533;BME280;9396;51.510;11.934;2023-04-01T00:56:21;98665.13;;;10.70;100.00
18533;BME280;9396;51.510;11.934;2023-04-01T00:58:51;98666.78;;;10.71;100.00
18533;BME280;9396;51.510;11.934;2023-04-01T01:01:20;98668.63;;;10.71;100.00
18533;BME280;9396;51.510;11.934;2023-04-01T01:03:48;98667.69;;;10.51;100.00
18533;BME280;9396;51.510;11.934;2023-04-01T01:06:22;98664.19;;;10.44;100.00
18533;BME280;9396;51.510;11.934;2023-04-01T01:09:10;98665.78;;;10.38;100.00
18533;BME280;9396;51.510;11.934;2023-04-01T01:11:43;98667.38;;;10.33;100.00
18533;BME280;9396;51.510;11.934;2023-04-01T01:14:24;98665.38;;;10.41;100.00
18533;BME280;9396;51.510;11.934;2023-04-01T01:17:02;98668.88;;;10.48;100.00
18533;BME280;9396;51.510;11.934;2023-04-01T01:19:52;98669.16;;;10.53;100.00
18533;BME280;9396;51.510;11.934;2023-04-01T01:25:40;98666.09;;;10.56;100.00
18533;BME280;9396;51.510;11.934;2023-04-01T01:28:23;98662.81;;;10.54;100.00
18533;BME280;9396;51.510;11.934;2023-04-01T01:31:00;98662.41;;;10.57;100.00
18533;BME280;9396;51.510;11.934;2023-04-01T01:33:52;98658.53;;;10.60;100.00
18533;BME280;9396;51.510;11.934;2023-04-01T01:36:31;98651.19;;;10.62;100.00
18533;BME280;9396;51.510;11.934;2023-04-01T01:39:00;98658.34;;;10.61;100.00
18533;BME280;9396;51.510;11.934;2023-04-01T01:41:29;98662.41;;;10.57;100.00
18533;BME280;9396;51.510;11.934;2023-04-01T01:43:59;98660.38;;;10.59;100.00
18533;BME280;9396;51.510;11.934;2023-04-01T01:46:27;98662.03;;;10.60;100.00
18533;BME280;9396;51.510;11.934;2023-04-01T01:48:57;98668.16;;;10.61;100.00
18533;BME280;9396;51.510;11.934;2023-04-01T01:51:27;98665.31;;;10.62;100.00
18533;BME280;9396;51.510;11.934;2023-04-01T01:53:54;98592.47;;;10.16;100.00
18533;BME280;9396;51.510;11.934;2023-04-01T01:56:23;98670.22;;;10.65;100.00
18533;BME280;9396;51.510;11.934;2023-04-01T01:58:55;98674.72;;;10.65;100.00
18533;BME280;9396;51.510;11.934;2023-04-01T02:01:24;98660.78;;;10.63;100.00
18533;BME280;9396;51.510;11.934;2023-04-01T02:03:52;98668.53;;;10.51;100.00
18533;BME280;9396;51.510;11.934;2023-04-01T02:06:22;98672.19;;;10.50;100.00
18533;BME280;9396;51.510;11.934;2023-04-01T02:08:53;98661.50;;;10.37;100.00
18533;BME280;9396;51.510;11.934;2023-04-01T02:11:26;98666.25;;;10.14;100.00
18533;BME280;9396;51.510;11.934;2023-04-01T02:13:56;98668.34;;;10.04;100.00
18533;BME280;9396;51.510;11.934;2023-04-01T02:16:40;98668.69;;;10.16;100.00
18533;BME280;9396;51.510;11.934;2023-04-01T02:19:10;98661.34;;;10.18;100.00
18533;BME280;9396;51.510;11.934;2023-04-01T02:21:39;98661.28;;;10.11;100.00
18533;BME280;9396;51.510;11.934;2023-04-01T02:24:11;98663.78;;;10.13;100.00
18533;BME280;9396;51.510;11.934;2023-04-01T02:26:40;98662.56;;;10.15;100.00
18533;BME280;9396;51.510;11.934;2023-04-01T02:29:09;98673.00;;;9.96;100.00
18533;BME280;9396;51.510;11.934;2023-04-01T02:31:37;98665.22;;;9.94;100.00
18533;BME280;9396;51.510;11.934;2023-04-01T02:34:04;98673.19;;;9.94;100.00
18533;BME280;9396;51.510;11.934;2023-04-01T02:36:31;98669.00;;;10.06;100.00
18533;BME280;9396;51.510;11.934;2023-04-01T02:38:58;98672.28;;;10.08;100.00
18533;BME280;9396;51.510;11.934;2023-04-01T02:41:29;98679.38;;;10.01;100.00
18533;BME280;9396;51.510;11.934;2023-04-01T02:43:55;98690.25;;;10.06;100.00
18533;BME280;9396;51.510;11.934;2023-04-01T02:46:23;98678.50;;;10.15;100.00
18533;BME280;9396;51.510;11.934;2023-04-01T02:48:50;98614.66;;;9.81;100.00
18533;BME280;9396;51.510;11.934;2023-04-01T02:51:17;98684.28;;;10.25;100.00
18533;BME280;9396;51.510;11.934;2023-04-01T02:53:44;98687.34;;;10.22;100.00
18533;BME280;9396;51.510;11.934;2023-04-01T02:56:10;98687.75;;;10.26;100.00
18533;BME280;9396;51.510;11.934;2023-04-01T02:58:38;98691.50;;;10.31;100.00
18533;BME280;9396;51.510;11.934;2023-04-01T03:01:05;98693.75;;;10.34;100.00
18533;BME280;9396;51.510;11.934;2023-04-01T03:03:33;98694.19;;;10.38;100.00
18533;BME280;9396;51.510;11.934;2023-04-01T03:06:05;98690.72;;;10.37;100.00
18533;BME280;9396;51.510;11.934;2023-04-01T03:08:31;98685.94;;;10.26;100.00
18533;BME280;9396;51.510;11.934;2023-04-01T03:10:58;98695.81;;;10.32;100.00
18533;BME280;9396;51.510;11.934;2023-04-01T03:13:25;98690.53;;;10.39;100.00
18533;BME280;9396;51.510;11.934;2023-04-01T03:15:53;98693.50;;;10.29;100.00
18533;BME280;9396;51.510;11.934;2023-04-01T03:18:20;98692.94;;;10.34;100.00
18533;BME280;9396;51.510;11.934;2023-04-01T03:20:46;98692.34;;;10.38;100.00
18533;BME280;9396;51.510;11.934;2023-04-01T03:23:13;98686.84;;;10.40;100.00
18533;BME280;9396;51.510;11.934;2023-04-01T03:25:42;98689.72;;;10.45;100.00
18533;BME280;9396;51.510;11.934;2023-04-01T03:28:09;98691.19;;;10.47;100.00
18533;BME280;9396;51.510;11.934;2023-04-01T03:30:35;98699.41;;;10.52;100.00
18533;BME280;9396;51.510;11.934;2023-04-01T03:33:04;98690.31;;;10.40;100.00
18533;BME280;9396;51.510;11.934;2023-04-01T03:35:30;98695.66;;;10.47;100.00
18533;BME280;9396;51.510;11.934;2023-04-01T03:37:57;98691.81;;;10.49;100.00
18533;BME280;9396;51.510;11.934;2023-04-01T03:40:24;98694.28;;;10.51;100.00
18533;BME280;9396;51.510;11.934;2023-04-01T03:42:51;98698.41;;;10.53;100.00
18533;BME280;9396;51.510;11.934;2023-04-01T03:45:18;98696.38;;;10.55;100.00
18533;BME280;9396;51.510;11.934;2023-04-01T03:47:45;98696.38;;;10.55;100.00
18533;BME280;9396;51.510;11.934;2023-04-01T03:50:13;98695.34;;;10.56;100.00
18533;BME280;9396;51.510;11.934;2023-04-01T03:52:39;98694.31;;;10.57;100.00
18533;BME280;9396;51.510;11.934;2023-04-01T03:55:07;98700.44;;;10.58;100.00
18533;BME280;9396;51.510;11.934;2023-04-01T03:57:33;98698.63;;;10.58;100.00
18533;BME280;9396;51.510;11.934;2023-04-01T04:00:00;98699.44;;;10.59;100.00
18533;BME280;9396;51.510;11.934;2023-04-01T04:02:27;98693.94;;;10.60;100.00
18533;BME280;9396;51.510;11.934;2023-04-01T04:04:53;98699.25;;;10.60;100.00
18533;BME280;9396;51.510;11.934;2023-04-01T04:07:21;98703.53;;;10.61;100.00
18533;BME280;9396;51.510;11.934;2023-04-01T04:09:48;98700.88;;;10.61;100.00
18533;BME280;9396;51.510;11.934;2023-04-01T04:12:15;98708.03;;;10.61;100.00
18533;BME280;9396;51.510;11.934;2023-04-01T04:14:41;98708.03;;;10.61;100.00
18533;BME280;9396;51.510;11.934;2023-04-01T04:17:09;98711.72;;;10.60;100.00
18533;BME280;9396;51.510;11.934;2023-04-01T04:19:39;98713.53;;;10.59;100.00
18533;BME280;9396;51.510;11.934;2023-04-01T04:22:05;98707.44;;;10.59;100.00
18533;BME280;9396;51.510;11.934;2023-04-01T04:24:34;98702.91;;;10.59;100.00
18533;BME280;9396;51.510;11.934;2023-04-01T04:27:01;98711.91;;;10.58;100.00
18533;BME280;9396;51.510;11.934;2023-04-01T04:29:27;98716.38;;;10.51;100.00
18533;BME280;9396;51.510;11.934;2023-04-01T04:31:54;98707.75;;;10.49;100.00
18533;BME280;9396;51.510;11.934;2023-04-01T04:34:21;98715.34;;;10.52;100.00
18533;BME280;9396;51.510;11.934;2023-04-01T04:36:48;98685.69;;;10.21;100.00
18533;BME280;9396;51.510;11.934;2023-04-01T04:39:14;98722.88;;;10.49;100.00
18533;BME280;9396;51.510;11.934;2023-04-01T04:41:42;98723.09;;;10.47;100.00
18533;BME280;9396;51.510;11.934;2023-04-01T04:44:09;98732.09;;;10.46;100.00
18533;BME280;9396;51.510;11.934;2023-04-01T04:46:36;98734.34;;;10.49;100.00
18533;BME280;9396;51.510;11.934;2023-04-01T04:49:04;98728.59;;;10.46;100.00
18533;BME280;9396;51.510;11.934;2023-04-01T04:51:31;98735.53;;;10.47;100.00
18533;BME280;9396;51.510;11.934;2023-04-01T04:53:59;98732.09;;;10.46;100.00
18533;BME280;9396;51.510;11.934;2023-04-01T04:56:26;98731.06;;;10.47;100.00
18533;BME280;9396;51.510;11.934;2023-04-01T04:58:54;98724.47;;;10.43;100.00
18533;BME280;9396;51.510;11.934;2023-04-01T05:01:21;98736.38;;;10.47;100.00
18533;BME280;9396;51.510;11.934;2023-04-01T05:03:47;98734.75;;;10.46;100.00
18533;BME280;9396;51.510;11.934;2023-04-01T05:06:15;98737.00;;;10.49;100.00
18533;BME280;9396;51.510;11.934;2023-04-01T05:08:43;98739.28;;;10.52;100.00
18533;BME280;9396;51.510;11.934;2023-04-01T05:11:12;98742.75;;;10.53;100.00
18533;BME280;9396;51.510;11.934;2023-04-01T05:13:39;98739.28;;;10.52;100.00
18533;BME280;9396;51.510;11.934;2023-04-01T05:16:09;98746.88;;;10.55;100.00
18533;BME280;9396;51.510;11.934;2023-04-01T05:18:36;98748.31;;;10.58;100.00
18533;BME280;9396;51.510;11.934;2023-04-01T05:21:03;98744.66;;;10.59;100.00
18533;BME280;9396;51.510;11.934;2023-04-01T05:23:30;98744.44;;;10.60;100.00
18533;BME280;9396;51.510;11.934;2023-04-01T05:25:57;98752.44;;;10.60;100.00
18533;BME280;9396;51.510;11.934;2023-04-01T05:28:24;98749.13;;;10.58;100.00
18533;BME280;9396;51.510;11.934;2023-04-01T05:30:51;98744.66;;;10.59;100.00
18533;BME280;9396;51.510;11.934;2023-04-01T05:33:19;98749.78;;;10.60;100.00
18533;BME280;9396;51.510;11.934;2023-04-01T05:35:45;98759.34;;;10.55;100.00
18533;BME280;9396;51.510;11.934;2023-04-01T05:38:12;98749.53;;;10.55;100.00
18533;BME280;9396;51.510;11.934;2023-04-01T05:40:39;98752.78;;;10.57;100.00
18533;BME280;9396;51.510;11.934;2023-04-01T05:43:05;98750.56;;;10.61;100.00
18533;BME280;9396;51.510;11.934;2023-04-01T05:45:32;98753.63;;;10.58;100.00
18533;BME280;9396;51.510;11.934;2023-04-01T05:47:59;98753.44;;;10.59;100.00
18533;BME280;9396;51.510;11.934;2023-04-01T05:50:27;98751.00;;;10.64;100.00
18533;BME280;9396;51.510;11.934;2023-04-01T05:52:53;98752.91;;;10.70;100.00
18533;BME280;9396;51.510;11.934;2023-04-01T05:55:20;98759.28;;;10.76;100.00
18533;BME280;9396;51.510;11.934;2023-04-01T05:57:47;98757.81;;;10.73;100.00
18533;BME280;9396;51.510;11.934;2023-04-01T06:00:15;98692.94;;;10.34;100.00
18533;BME280;9396;51.510;11.934;2023-04-01T06:02:42;98766.06;;;10.78;100.00
18533;BME280;9396;51.510;11.934;2023-04-01T06:05:15;98766.28;;;10.84;100.00
18533;BME280;9396;51.510;11.934;2023-04-01T06:07:44;98760.56;;;10.87;100.00
18533;BME280;9396;51.510;11.934;2023-04-01T06:10:16;98758.34;;;10.90;100.00
18533;BME280;9396;51.510;11.934;2023-04-01T06:12:50;98764.91;;;10.94;100.00
18533;BME280;9396;51.510;11.934;2023-04-01T06:15:24;98765.34;;;10.98;100.00
18533;BME280;9396;51.510;11.934;2023-04-01T06:18:13;98761.88;;;11.04;100.00
18533;BME280;9396;51.510;11.934;2023-04-01T06:20:50;98766.63;;;11.08;100.00
18533;BME280;9396;51.510;11.934;2023-04-01T06:23:40;98771.16;;;11.14;100.00
18533;BME280;9396;51.510;11.934;2023-04-01T06:26:21;98765.03;;;11.20;100.00
18533;BME280;9396;51.510;11.934;2023-04-01T06:29:08;98765.06;;;11.27;100.00
18533;BME280;9396;51.510;11.934;2023-04-01T06:31:56;98774.91;;;11.33;100.00
18533;BME280;9396;51.510;11.934;2023-04-01T06:34:40;98768.81;;;11.39;100.00
18533;BME280;9396;51.510;11.934;2023-04-01T06:37:23;98779.91;;;11.49;100.00
18533;BME280;9396;51.510;11.934;2023-04-01T06:40:19;98778.28;;;11.54;100.00
18533;BME280;9396;51.510;11.934;2023-04-01T06:42:55;98779.50;;;11.52;100.00
18533;BME280;9396;51.510;11.934;2023-04-01T06:45:33;98780.31;;;11.46;100.00
18533;BME280;9396;51.510;11.934;2023-04-01T06:48:15;98783.59;;;11.48;100.00
18533;BME280;9396;51.510;11.934;2023-04-01T06:50:48;98789.28;;;11.45;100.00
18533;BME280;9396;51.510;11.934;2023-04-01T06:53:23;98789.69;;;11.35;100.00
18533;BME280;9396;51.510;11.934;2023-04-01T06:55:57;98795.44;;;11.39;100.00
18533;BME280;9396;51.510;11.934;2023-04-01T06:58:29;98791.25;;;11.23;100.00
18533;BME280;9396;51.510;11.934;2023-04-01T07:00:59;98792.19;;;11.09;100.00
18533;BME280;9396;51.510;11.934;2023-04-01T07:03:32;98795.56;;;11.24;100.00
18533;BME280;9396;51.510;11.934;2023-04-01T07:06:02;98799.47;;;11.28;100.00
18533;BME280;9396;51.510;11.934;2023-04-01T07:08:33;98789.97;;;11.13;100.00
18533;BME280;9396;51.510;11.934;2023-04-01T07:11:05;98796.97;;;11.20;100.00
18533;BME280;9396;51.510;11.934;2023-04-01T07:13:34;98797.81;;;11.27;100.00
18533;BME280;9396;51.510;11.934;2023-04-01T07:16:12;98797.03;;;10.93;100.00
18533;BME280;9396;51.510;11.934;2023-04-01T07:18:43;98799.38;;;11.09;100.00
18533;BME280;9396;51.510;11.934;2023-04-01T07:21:22;98801.00;;;11.10;100.00
18533;BME280;9396;51.510;11.934;2023-04-01T07:23:51;98796.72;;;11.09;100.00
18533;BME280;9396;51.510;11.934;2023-04-01T07:26:23;98799.84;;;11.25;100.00
18533;BME280;9396;51.510;11.934;2023-04-01T07:28:51;98802.38;;;11.40;100.00
18533;BME280;9396;51.510;11.934;2023-04-01T07:31:30;98804.84;;;11.41;100.00
18533;BME280;9396;51.510;11.934;2023-04-01T07:34:04;98802.25;;;11.54;100.00
18533;BME280;9396;51.510;11.934;2023-04-01T07:36:38;98805.06;;;11.40;100.00
18533;BME280;9396;51.510;11.934;2023-04-01T07:39:15;98807.16;;;11.51;100.00
18533;BME280;9396;51.510;11.934;2023-04-01T07:41:51;98811.44;;;11.52;100.00
18533;BME280;9396;51.510;11.934;2023-04-01T07:44:26;98813.03;;;11.40;100.00
18533;BME280;9396;51.510;11.934;2023-04-01T07:47:15;98813.66;;;11.42;100.00
18533;BME280;9396;51.510;11.934;2023-04-01T07:49:53;98812.47;;;11.44;100.00
18533;BME280;9396;51.510;11.934;2023-04-01T07:52:31;98747.78;;;11.03;100.00
18533;BME280;9396;51.510;11.934;2023-04-01T07:55:07;98814.06;;;11.39;100.00
18533;BME280;9396;51.510;11.934;2023-04-01T07:57:43;98811.88;;;11.55;100.00
18533;BME280;9396;51.510;11.934;2023-04-01T08:00:19;98823.47;;;11.41;100.00
18533;BME280;9396;51.510;11.934;2023-04-01T08:03:02;98820.06;;;11.54;100.00
18533;BME280;9396;51.510;11.934;2023-04-01T08:05:40;98822.56;;;11.62;100.00
18533;BME280;9396;51.510;11.934;2023-04-01T08:08:18;98821.81;;;11.74;100.00
18533;BME280;9396;51.510;11.934;2023-04-01T08:10:49;98821.84;;;11.81;100.00
18533;BME280;9396;51.510;11.934;2023-04-01T08:13:29;98823.72;;;11.87;100.00
18533;BME280;9396;51.510;11.934;2023-04-01T08:16:09;98831.91;;;11.92;100.00
18533;BME280;9396;51.510;11.934;2023-04-01T08:18:43;98829.69;;;12.02;100.00
18533;BME280;9396;51.510;11.934;2023-04-01T08:21:17;98837.09;;;12.07;100.00
18533;BME280;9396;51.510;11.934;2023-04-01T08:23:49;98839.13;;;12.11;100.00
18533;BME280;9396;51.510;11.934;2023-04-01T08:26:25;98840.19;;;12.17;100.00
18533;BME280;9396;51.510;11.934;2023-04-01T08:28:59;98844.69;;;12.16;100.00
18533;BME280;9396;51.510;11.934;2023-04-01T08:31:31;98842.22;;;12.21;100.00
18533;BME280;9396;51.510;11.934;2023-04-01T08:34:01;98846.34;;;12.30;100.00
18533;BME280;9396;51.510;11.934;2023-04-01T08:36:33;98842.03;;;12.23;100.00
18533;BME280;9396;51.510;11.934;2023-04-01T08:39:06;98844.72;;;12.36;100.00
18533;BME280;9396;51.510;11.934;2023-04-01T08:47:42;98847.78;;;12.39;100.00
18533;BME280;9396;51.510;11.934;2023-04-01T08:50:28;98842.06;;;12.49;100.00
18533;BME280;9396;51.510;11.934;2023-04-01T08:53:00;98843.91;;;12.48;100.00
18533;BME280;9396;51.510;11.934;2023-04-01T08:55:51;98847.00;;;12.45;100.00
18533;BME280;9396;51.510;11.934;2023-04-01T08:58:58;98838.97;;;12.52;100.00
18533;BME280;9396;51.510;11.934;2023-04-01T09:01:42;98839.19;;;12.57;100.00
18533;BME280;9396;51.510;11.934;2023-04-01T09:04:42;98840.44;;;12.61;100.00
18533;BME280;9396;51.510;11.934;2023-04-01T09:07:28;98848.22;;;12.49;100.00
18533;BME280;9396;51.510;11.934;2023-04-01T09:10:21;98838.78;;;12.53;100.00
18533;BME280;9396;51.510;11.934;2023-04-01T09:12:59;98840.63;;;12.66;100.00
18533;BME280;9396;51.510;11.934;2023-04-01T09:15:58;98832.63;;;12.66;100.00
18533;BME280;9396;51.510;11.934;2023-04-01T09:18:48;98842.25;;;12.60;100.00
18533;BME280;9396;51.510;11.934;2023-04-01T09:21:51;98835.09;;;12.67;100.00
18533;BME280;9396;51.510;11.934;2023-04-01T09:24:57;98839.41;;;12.68;100.00
18533;BME280;9396;51.510;11.934;2023-04-01T09:27:29;98828.94;;;12.60;100.00
18533;BME280;9396;51.510;11.934;2023-04-01T09:30:27;98832.22;;;12.49;100.00
18533;BME280;9396;51.510;11.934;2023-04-01T09:33:31;98839.00;;;12.58;100.00
18533;BME280;9396;51.510;11.934;2023-04-01T09:36:14;98852.50;;;12.37;100.00
18533;BME280;9396;51.510;11.934;2023-04-01T09:38:55;98848.63;;;12.33;100.00
18533;BME280;9396;51.510;11.934;2023-04-01T09:41:29;98851.06;;;12.22;100.00
18533;BME280;9396;51.510;11.934;2023-04-01T09:44:05;98851.91;;;12.35;100.00
18533;BME280;9396;51.510;11.934;2023-04-01T09:46:48;98850.03;;;12.29;100.00
18533;BME280;9396;51.510;11.934;2023-04-01T09:49:43;98856.22;;;12.43;100.00
18533;BME280;9396;51.510;11.934;2023-04-01T09:52:27;98859.28;;;12.46;100.00
18533;BME280;9396;51.510;11.934;2023-04-01T09:55:06;98855.63;;;12.47;100.00
18533;BME280;9396;51.510;11.934;2023-04-01T09:58:02;98861.56;;;12.56;100.00
18533;BME280;9396;51.510;11.934;2023-04-01T10:01:10;98851.72;;;12.69;100.00
18533;BME280;9396;51.510;11.934;2023-04-01T10:07:49;98862.78;;;12.66;99.28
18533;BME280;9396;51.510;11.934;2023-04-01T10:16:43;98867.75;;;12.76;98.58
18533;BME280;9396;51.510;11.934;2023-04-01T10:19:48;98870.00;;;12.72;97.65
18533;BME280;9396;51.510;11.934;2023-04-01T10:22:36;98863.63;;;12.67;98.47
18533;BME280;9396;51.510;11.934;2023-04-01T10:25:32;98866.91;;;12.56;96.42
18533;BME280;9396;51.510;11.934;2023-04-01T10:31:30;98861.16;;;12.72;97.30
18533;BME280;9396;51.510;11.934;2023-04-01T10:34:26;98864.84;;;12.90;99.35
18533;BME280;9396;51.510;11.934;2023-04-01T10:36:56;98862.38;;;13.09;100.00
18533;BME280;9396;51.510;11.934;2023-04-01T10:40:06;98863.41;;;13.27;99.71
18533;BME280;9396;51.510;11.934;2023-04-01T10:43:10;98866.66;;;13.36;94.84
18533;BME280;9396;51.510;11.934;2023-04-01T10:46:01;98863.38;;;13.34;94.01
18533;BME280;9396;51.510;11.934;2023-04-01T10:55:35;98860.22;;;13.56;93.40
18533;BME280;9396;51.510;11.934;2023-04-01T10:58:21;98874.88;;;13.34;94.86
18533;BME280;9396;51.510;11.934;2023-04-01T11:01:12;98883.53;;;13.17;96.51
18533;BME280;9396;51.510;11.934;2023-04-01T11:04:10;98878.84;;;13.06;97.67
18533;BME280;9396;51.510;11.934;2023-04-01T11:07:09;98885.78;;;12.93;99.52
18533;BME280;9396;51.510;11.934;2023-04-01T11:13:36;98882.09;;;12.81;99.55
18533;BME280;9396;51.510;11.934;2023-04-01T11:22:49;98876.53;;;12.96;100.00
18533;BME280;9396;51.510;11.934;2023-04-01T11:25:35;98881.47;;;13.12;98.87
18533;BME280;9396;51.510;11.934;2023-04-01T11:28:27;98875.50;;;13.30;98.21
18533;BME280;9396;51.510;11.934;2023-04-01T11:31:16;98868.09;;;13.38;97.39
18533;BME280;9396;51.510;11.934;2023-04-01T11:33:53;98870.31;;;13.48;96.90
18533;BME280;9396;51.510;11.934;2023-04-01T11:36:35;98877.72;;;13.52;96.49
18533;BME280;9396;51.510;11.934;2023-04-01T11:39:14;98877.66;;;13.65;94.85
18533;BME280;9396;51.510;11.934;2023-04-01T11:41:52;98890.03;;;13.53;94.71
18533;BME280;9396;51.510;11.934;2023-04-01T11:44:26;98883.03;;;13.59;94.91
18533;BME280;9396;51.510;11.934;2023-04-01T11:47:03;98860.69;;;13.47;93.61
18533;BME280;9396;51.510;11.934;2023-04-01T11:49:49;98885.13;;;13.50;95.17
18533;BME280;9396;51.510;11.934;2023-04-01T11:52:40;98890.03;;;13.60;94.10
18533;BME280;9396;51.510;11.934;2023-04-01T11:55:32;98882.81;;;13.60;93.91
18533;BME280;9396;51.510;11.934;2023-04-01T11:58:21;98900.31;;;13.50;94.20
18533;BME280;9396;51.510;11.934;2023-04-01T12:00:59;98895.84;;;13.44;94.54
18533;BME280;9396;51.510;11.934;2023-04-01T12:03:38;98899.34;;;13.31;95.13
18533;BME280;9396;51.510;11.934;2023-04-01T12:06:14;98901.75;;;13.46;96.47
18533;BME280;9396;51.510;11.934;2023-04-01T12:08:46;98902.38;;;13.54;94.06
18533;BME280;9396;51.510;11.934;2023-04-01T12:11:25;98901.13;;;13.57;93.39
18533;BME280;9396;51.510;11.934;2023-04-01T12:13:57;98908.13;;;13.58;94.65
18533;BME280;9396;51.510;11.934;2023-04-01T12:16:40;98910.81;;;13.45;94.57
18533;BME280;9396;51.510;11.934;2023-04-01T12:19:14;98914.31;;;13.45;94.49
18533;BME280;9396;51.510;11.934;2023-04-01T12:21:45;98911.41;;;13.53;95.62
18533;BME280;9396;51.510;11.934;2023-04-01T12:24:42;98918.84;;;13.45;96.38
18533;BME280;9396;51.510;11.934;2023-04-01T12:27:29;98921.97;;;13.22;95.47
18533;BME280;9396;51.510;11.934;2023-04-01T12:30:24;98923.59;;;13.17;95.80
18533;BME280;9396;51.510;11.934;2023-04-01T12:33:05;98922.56;;;13.24;95.20
18533;BME280;9396;51.510;11.934;2023-04-01T12:35:47;98920.91;;;13.30;93.73
18533;BME280;9396;51.510;11.934;2023-04-01T12:38:27;98919.28;;;13.16;94.45
18533;BME280;9396;51.510;11.934;2023-04-01T12:41:06;98925.03;;;13.26;94.68
18533;BME280;9396;51.510;11.934;2023-04-01T12:43:53;98926.25;;;13.23;95.95
18533;BME280;9396;51.510;11.934;2023-04-01T12:46:29;98935.09;;;13.24;95.33
18533;BME280;9396;51.510;11.934;2023-04-01T12:49:15;98931.41;;;13.18;96.42
18533;BME280;9396;51.510;11.934;2023-04-01T12:51:58;98938.56;;;13.18;96.55
18533;BME280;9396;51.510;11.934;2023-04-01T12:54:58;98937.56;;;13.25;96.98
18533;BME280;9396;51.510;11.934;2023-04-01T12:57:59;98938.16;;;13.34;96.72
18533;BME280;9396;51.510;11.934;2023-04-01T13:00:46;98950.06;;;13.25;95.79
18533;BME280;9396;51.510;11.934;2023-04-01T13:03:40;98947.19;;;13.26;96.76
18533;BME280;9396;51.510;11.934;2023-04-01T13:06:33;98951.13;;;13.24;97.54
18533;BME280;9396;51.510;11.934;2023-04-01T13:09:13;98947.22;;;13.20;98.98
18533;BME280;9396;51.510;11.934;2023-04-01T13:11:52;98955.00;;;13.21;98.78
18533;BME280;9396;51.510;11.934;2023-04-01T13:14:35;98953.16;;;13.22;98.28
18533;BME280;9396;51.510;11.934;2023-04-01T13:17:11;98954.41;;;13.26;99.10
18533;BME280;9396;51.510;11.934;2023-04-01T13:19:44;98966.31;;;13.23;99.84
18533;BME280;9396;51.510;11.934;2023-04-01T13:22:17;98962.41;;;13.26;100.00
18533;BME280;9396;51.510;11.934;2023-04-01T13:24:50;98966.91;;;13.32;100.00
18533;BME280;9396;51.510;11.934;2023-04-01T13:27:22;98977.59;;;13.32;100.00
18533;BME280;9396;51.510;11.934;2023-04-01T13:30:02;98932.22;;;13.12;100.00
18533;BME280;9396;51.510;11.934;2023-04-01T13:32:36;98975.78;;;13.26;99.76
18533;BME280;9396;51.510;11.934;2023-04-01T13:35:14;98972.06;;;13.27;100.00
18533;BME280;9396;51.510;11.934;2023-04-01T13:38:15;98974.31;;;13.30;100.00
18533;BME280;9396;51.510;11.934;2023-04-01T13:40:50;98978.84;;;13.23;99.65
18533;BME280;9396;51.510;11.934;2023-04-01T13:43:22;98983.72;;;13.00;100.00
18533;BME280;9396;51.510;11.934;2023-04-01T13:46:04;98977.34;;;12.81;100.00
18533;BME280;9396;51.510;11.934;2023-04-01T13:48:50;98984.94;;;12.90;100.00
18533;BME280;9396;51.510;11.934;2023-04-01T13:51:48;98980.47;;;12.98;100.00
18533;BME280;9396;51.510;11.934;2023-04-01T13:54:41;98986.56;;;12.78;100.00
18533;BME280;9396;51.510;11.934;2023-04-01T13:57:26;98988.22;;;12.86;100.00
18533;BME280;9396;51.510;11.934;2023-04-01T14:00:27;98987.59;;;12.90;100.00
18533;BME280;9396;51.510;11.934;2023-04-01T14:03:26;98984.53;;;13.00;100.00
18533;BME280;9396;51.510;11.934;2023-04-01T14:06:02;98989.47;;;12.97;100.00
18533;BME280;9396;51.510;11.934;2023-04-01T14:08:55;98986.19;;;12.88;100.00
18533;BME280;9396;51.510;11.934;2023-04-01T14:11:32;98994.41;;;12.86;100.00
18533;BME280;9396;51.510;11.934;2023-04-01T14:14:08;98990.28;;;12.77;100.00
18533;BME280;9396;51.510;11.934;2023-04-01T14:17:01;98992.69;;;12.59;100.00
18533;BME280;9396;51.510;11.934;2023-04-01T14:19:46;98993.72;;;12.58;100.00